Time;durP1;ratioP1;P1;durP2;ratioP2;P2;SDS_P1;SDS_P2;PMS_P1;PMS_P2;Temp;Humidity;BMP_temperature;BMP_pressure;BME280_temperature;BME280_humidity;BME280_pressure;Samples;Min_cycle;Max_cycle;Signal;HPM_P1;HPM_P2
2023/07/29 00:01:17;;;;;;;1.30;1.20;;;;;;;;;;5032748;28;20046;-65
2023/07/29 00:03:44;;;;;;;2.00;1.48;;;;;;;;;;5033301;28;20499;-65
2023/07/29 00:06:11;;;;;;;2.88;1.50;;;;;;;;;;5033013;28;20052;-65
2023/07/29 00:08:38;;;;;;;4.43;1.80;;;;;;;;;;5033184;28;20490;-65
2023/07/29 00:11:04;;;;;;;1.60;1.50;;;;;;;;;;5032097;28;20059;-65
2023/07/29 00:13:32;;;;;;;1.42;1.30;;;;;;;;;;5033353;28;20053;-66
2023/07/29 00:15:59;;;;;;;3.70;1.60;;;;;;;;;;5032628;28;20128;-65
2023/07/29 00:18:25;;;;;;;3.40;1.60;;;;;;;;;;5032834;28;20053;-65
2023/07/29 00:20:52;;;;;;;1.90;1.58;;;;;;;;;;5032061;28;20037;-65
2023/07/29 00:23:19;;;;;;;2.28;1.40;;;;;;;;;;5032897;28;20052;-65
2023/07/29 00:25:46;;;;;;;1.88;1.50;;;;;;;;;;5032175;28;20050;-65
2023/07/29 00:28:13;;;;;;;3.15;1.60;;;;;;;;;;5032860;28;20046;-65
2023/07/29 00:30:41;;;;;;;3.50;1.60;;;;;;;;;;5032168;28;20563;-65
2023/07/29 00:33:08;;;;;;;2.25;1.70;;;;;;;;;;5032659;28;20046;-65
2023/07/29 00:35:35;;;;;;;4.78;1.70;;;;;;;;;;5032654;28;20499;-65
2023/07/29 00:38:01;;;;;;;2.97;1.60;;;;;;;;;;5032223;28;20073;-65
2023/07/29 00:40:30;;;;;;;2.80;1.70;;;;;;;;;;5031748;28;20049;-66
2023/07/29 00:42:56;;;;;;;1.67;1.58;;;;;;;;;;5032404;28;20049;-66
2023/07/29 00:45:25;;;;;;;2.42;1.50;;;;;;;;;;5032704;28;20053;-66
2023/07/29 00:47:54;;;;;;;1.90;1.73;;;;;;;;;;5031998;28;20407;-65
2023/07/29 00:50:21;;;;;;;3.85;1.80;;;;;;;;;;5032312;28;20136;-66
2023/07/29 00:52:47;;;;;;;3.25;1.75;;;;;;;;;;5032451;28;20053;-66
2023/07/29 00:55:14;;;;;;;4.43;2.05;;;;;;;;;;5032566;28;20049;-66
2023/07/29 00:57:42;;;;;;;1.88;1.73;;;;;;;;;;5032139;28;20045;-66
2023/07/29 01:00:10;;;;;;;3.25;1.70;;;;;;;;;;5031761;28;20045;-66
2023/07/29 01:02:37;;;;;;;1.50;1.40;;;;;;;;;;5031416;28;20168;-66
2023/07/29 01:05:06;;;;;;;2.67;1.60;;;;;;;;;;5032026;28;20045;-65
2023/07/29 01:07:40;;;;;;;1.40;1.30;;;;;;;;;;5031347;28;20368;-66
2023/07/29 01:10:15;;;;;;;2.05;1.50;;;;;;;;;;5031774;28;20132;-66
2023/07/29 01:12:49;;;;;;;3.25;1.40;;;;;;;;;;5031752;28;20495;-66
2023/07/29 01:15:20;;;;;;;1.73;1.45;;;;;;;;;;5031812;28;20056;-66
2023/07/29 01:17:48;;;;;;;2.67;1.50;;;;;;;;;;5031434;28;20475;-66
2023/07/29 01:20:20;;;;;;;2.42;1.30;;;;;;;;;;5031552;28;20128;-66
2023/07/29 01:22:47;;;;;;;2.20;1.55;;;;;;;;;;5031677;28;20505;-66
2023/07/29 01:25:15;;;;;;;1.42;1.33;;;;;;;;;;5031466;28;20042;-65
2023/07/29 01:27:44;;;;;;;3.25;1.33;;;;;;;;;;5031667;28;20052;-65
2023/07/29 01:30:11;;;;;;;1.90;1.30;;;;;;;;;;5030702;28;20072;-66
2023/07/29 01:32:43;;;;;;;3.03;1.33;;;;;;;;;;5031850;28;20055;-66
2023/07/29 01:35:20;;;;;;;1.83;1.30;;;;;;;;;;5031561;28;20045;-66
2023/07/29 01:37:50;;;;;;;4.38;1.33;;;;;;;;;;5031448;28;20045;-65
2023/07/29 01:40:19;;;;;;;2.03;1.30;;;;;;;;;;5030626;28;20046;-66
2023/07/29 01:42:46;;;;;;;1.27;1.13;;;;;;;;;;5031555;28;20136;-66
2023/07/29 01:45:13;;;;;;;1.67;1.58;;;;;;;;;;5031315;28;20529;-66
2023/07/29 01:47:41;;;;;;;2.22;1.67;;;;;;;;;;5031287;28;20053;-66
2023/07/29 01:50:09;;;;;;;2.30;1.55;;;;;;;;;;5030906;28;20045;-66
2023/07/29 01:52:36;;;;;;;1.40;1.30;;;;;;;;;;5031772;28;20136;-66
2023/07/29 01:55:02;;;;;;;1.30;1.20;;;;;;;;;;5030975;28;20064;-66
2023/07/29 01:57:31;;;;;;;1.58;1.42;;;;;;;;;;5031290;28;20521;-66
2023/07/29 01:59:58;;;;;;;2.55;1.40;;;;;;;;;;5030942;28;20103;-66
2023/07/29 02:02:24;;;;;;;3.25;1.85;;;;;;;;;;5031095;28;20050;-66
2023/07/29 02:04:52;;;;;;;1.67;1.58;;;;;;;;;;5031430;28;20483;-66
2023/07/29 02:07:19;;;;;;;1.75;1.50;;;;;;;;;;5030655;28;20077;-66
2023/07/29 02:09:46;;;;;;;1.50;1.40;;;;;;;;;;5030651;28;20427;-66
2023/07/29 02:12:12;;;;;;;1.77;1.58;;;;;;;;;;5030824;28;20394;-65
2023/07/29 02:14:41;;;;;;;1.73;1.38;;;;;;;;;;5030907;28;20049;-66
2023/07/29 02:17:08;;;;;;;1.80;1.60;;;;;;;;;;5030767;28;20127;-65
2023/07/29 02:19:35;;;;;;;1.50;1.40;;;;;;;;;;5030616;28;20149;-66
2023/07/29 02:22:02;;;;;;;1.95;1.70;;;;;;;;;;5030388;28;20053;-65
2023/07/29 02:24:28;;;;;;;2.30;1.30;;;;;;;;;;5030411;28;20495;-66
2023/07/29 02:26:55;;;;;;;4.35;1.60;;;;;;;;;;5030009;28;20207;-66
2023/07/29 02:29:22;;;;;;;3.30;1.45;;;;;;;;;;5030857;28;20475;-66
2023/07/29 02:31:50;;;;;;;3.45;1.75;;;;;;;;;;5029999;28;20041;-65
2023/07/29 02:34:17;;;;;;;2.40;1.58;;;;;;;;;;5030707;28;20045;-66
2023/07/29 02:36:45;;;;;;;1.90;1.70;;;;;;;;;;5030226;28;20081;-66
2023/07/29 02:39:12;;;;;;;2.22;1.73;;;;;;;;;;5030283;28;20148;-66
2023/07/29 02:41:38;;;;;;;2.63;1.50;;;;;;;;;;5030195;28;20053;-66
2023/07/29 02:44:06;;;;;;;2.30;1.60;;;;;;;;;;5030217;28;20435;-66
2023/07/29 02:46:32;;;;;;;4.03;1.55;;;;;;;;;;5030536;28;20047;-65
2023/07/29 02:49:02;;;;;;;8.75;2.20;;;;;;;;;;5029801;28;20049;-66
2023/07/29 02:51:29;;;;;;;3.35;1.60;;;;;;;;;;5029271;28;20454;-66
2023/07/29 02:53:56;;;;;;;1.77;1.67;;;;;;;;;;5030135;28;20049;-65
2023/07/29 02:56:23;;;;;;;3.38;1.85;;;;;;;;;;5030397;28;20041;-66
2023/07/29 02:58:51;;;;;;;3.72;1.88;;;;;;;;;;5029860;28;20461;-66
2023/07/29 03:01:18;;;;;;;2.00;1.80;;;;;;;;;;5030195;28;20072;-66
2023/07/29 03:03:45;;;;;;;4.47;1.70;;;;;;;;;;5029958;28;20416;-65
2023/07/29 03:06:15;;;;;;;2.30;1.80;;;;;;;;;;5030348;28;20419;-65
2023/07/29 03:08:42;;;;;;;2.70;1.80;;;;;;;;;;5029955;28;20049;-66
2023/07/29 03:11:11;;;;;;;1.90;1.70;;;;;;;;;;5030012;28;20415;-65
2023/07/29 03:13:38;;;;;;;2.88;2.00;;;;;;;;;;5029818;28;20045;-65
2023/07/29 03:16:08;;;;;;;2.35;1.70;;;;;;;;;;5029999;28;20396;-64
2023/07/29 03:18:35;;;;;;;3.05;1.85;;;;;;;;;;5029854;28;20045;-65
2023/07/29 03:21:02;;;;;;;2.47;1.90;;;;;;;;;;5029158;28;20100;-65
2023/07/29 03:23:31;;;;;;;4.03;1.80;;;;;;;;;;5030304;28;20132;-65
2023/07/29 03:25:58;;;;;;;1.95;1.67;;;;;;;;;;5029503;28;20060;-65
2023/07/29 03:28:27;;;;;;;2.47;1.63;;;;;;;;;;5029985;28;20077;-65
2023/07/29 03:30:53;;;;;;;3.17;2.03;;;;;;;;;;5029030;28;20455;-65
2023/07/29 03:33:20;;;;;;;5.50;1.70;;;;;;;;;;5029573;28;20483;-65
2023/07/29 03:35:47;;;;;;;2.75;1.85;;;;;;;;;;5029423;28;20506;-65
2023/07/29 03:38:14;;;;;;;3.25;2.17;;;;;;;;;;5030014;28;20048;-65
2023/07/29 03:40:43;;;;;;;2.35;1.77;;;;;;;;;;5028942;28;20087;-65
2023/07/29 03:43:10;;;;;;;2.70;1.58;;;;;;;;;;5029855;28;20046;-65
2023/07/29 03:45:38;;;;;;;3.20;1.90;;;;;;;;;;5029298;28;20042;-65
2023/07/29 03:48:05;;;;;;;3.15;2.00;;;;;;;;;;5029547;28;20053;-65
2023/07/29 03:50:35;;;;;;;3.63;2.13;;;;;;;;;;5029103;28;20624;-65
2023/07/29 03:53:02;;;;;;;4.00;2.15;;;;;;;;;;5029884;28;20522;-65
2023/07/29 03:55:29;;;;;;;3.35;2.13;;;;;;;;;;5029552;28;20132;-65
2023/07/29 03:57:57;;;;;;;3.60;2.00;;;;;;;;;;5029753;28;20049;-65
2023/07/29 04:00:24;;;;;;;4.32;2.13;;;;;;;;;;5057008;22;20148;-68
2023/07/29 04:02:51;;;;;;;4.68;2.50;;;;;;;;;;5050792;28;20045;-68
2023/07/29 04:05:18;;;;;;;2.65;2.00;;;;;;;;;;5053334;28;20520;-68
2023/07/29 04:07:44;;;;;;;3.40;2.40;;;;;;;;;;5053405;28;20045;-68
2023/07/29 04:10:11;;;;;;;2.90;2.47;;;;;;;;;;5052930;28;20414;-68
2023/07/29 04:12:38;;;;;;;4.32;2.70;;;;;;;;;;5053016;28;20387;-67
2023/07/29 04:15:07;;;;;;;3.53;2.63;;;;;;;;;;5052930;28;20568;-68
2023/07/29 04:17:34;;;;;;;4.00;2.30;;;;;;;;;;5052731;28;20417;-67
2023/07/29 04:20:00;;;;;;;3.70;2.58;;;;;;;;;;5052560;28;20513;-68
2023/07/29 04:22:27;;;;;;;4.78;2.33;;;;;;;;;;5052468;28;20049;-68
2023/07/29 04:24:53;;;;;;;4.13;3.00;;;;;;;;;;5052763;28;20047;-67
2023/07/29 04:27:20;;;;;;;3.65;3.13;;;;;;;;;;5052009;28;20045;-67
2023/07/29 04:29:46;;;;;;;3.92;2.95;;;;;;;;;;5052608;28;20047;-67
2023/07/29 04:32:14;;;;;;;2.67;2.45;;;;;;;;;;5053006;28;20406;-67
2023/07/29 04:34:41;;;;;;;5.70;3.05;;;;;;;;;;5052481;28;20049;-67
2023/07/29 04:37:07;;;;;;;3.42;2.65;;;;;;;;;;5052605;28;20049;-68
2023/07/29 04:39:34;;;;;;;4.45;3.03;;;;;;;;;;5051612;28;20051;-68
2023/07/29 04:42:01;;;;;;;4.75;3.15;;;;;;;;;;5052241;28;20059;-68
2023/07/29 04:44:28;;;;;;;3.28;2.67;;;;;;;;;;5052278;28;20048;-68
2023/07/29 04:46:54;;;;;;;4.20;2.80;;;;;;;;;;5052492;28;20052;-68
2023/07/29 04:49:22;;;;;;;6.38;2.58;;;;;;;;;;5051926;28;20068;-68
2023/07/29 04:51:49;;;;;;;4.95;2.50;;;;;;;;;;5052129;28;20055;-68
2023/07/29 04:54:15;;;;;;;2.80;2.40;;;;;;;;;;5051767;28;20132;-67
2023/07/29 04:56:42;;;;;;;2.90;2.17;;;;;;;;;;5051953;28;20048;-68
2023/07/29 04:59:09;;;;;;;3.55;1.90;;;;;;;;;;5051729;28;20045;-67
2023/07/29 05:01:35;;;;;;;3.97;2.30;;;;;;;;;;5051737;28;20102;-67
2023/07/29 05:04:02;;;;;;;2.75;2.40;;;;;;;;;;5051612;28;20059;-68
2023/07/29 05:06:30;;;;;;;3.97;2.33;;;;;;;;;;5052165;28;20051;-68
2023/07/29 05:08:58;;;;;;;3.28;2.00;;;;;;;;;;5051773;28;20499;-67
2023/07/29 05:11:25;;;;;;;3.25;2.30;;;;;;;;;;5051527;28;20045;-69
2023/07/29 05:13:52;;;;;;;2.83;2.03;;;;;;;;;;5051324;28;20095;-67
2023/07/29 05:16:18;;;;;;;3.60;2.33;;;;;;;;;;5051775;28;20052;-67
2023/07/29 05:18:45;;;;;;;2.67;2.25;;;;;;;;;;5052192;28;20413;-68
2023/07/29 05:21:14;;;;;;;3.38;2.05;;;;;;;;;;5051201;28;20525;-68
2023/07/29 05:23:42;;;;;;;3.05;2.10;;;;;;;;;;5051221;28;20081;-68
2023/07/29 05:26:08;;;;;;;3.65;2.15;;;;;;;;;;5051588;28;20414;-67
2023/07/29 05:28:35;;;;;;;3.30;2.30;;;;;;;;;;5051652;28;20070;-68
2023/07/29 05:31:01;;;;;;;3.58;1.98;;;;;;;;;;5051082;28;20067;-68
2023/07/29 05:33:28;;;;;;;2.90;2.28;;;;;;;;;;5051659;28;20079;-67
2023/07/29 05:35:55;;;;;;;3.15;2.22;;;;;;;;;;5051094;28;20059;-67
2023/07/29 05:38:22;;;;;;;3.75;2.00;;;;;;;;;;5051177;28;20049;-67
2023/07/29 05:40:50;;;;;;;3.05;2.00;;;;;;;;;;5050451;28;20049;-68
2023/07/29 05:43:17;;;;;;;3.55;2.60;;;;;;;;;;5051196;28;20049;-67
2023/07/29 05:45:43;;;;;;;3.13;1.98;;;;;;;;;;5051514;28;20041;-68
2023/07/29 05:48:10;;;;;;;5.35;1.85;;;;;;;;;;5051005;28;20045;-67
2023/07/29 05:50:36;;;;;;;5.78;2.20;;;;;;;;;;5050787;28;20414;-67
2023/07/29 05:53:03;;;;;;;3.75;2.28;;;;;;;;;;5050843;28;20379;-67
2023/07/29 05:55:30;;;;;;;2.92;1.92;;;;;;;;;;5051418;28;20078;-67
2023/07/29 05:57:58;;;;;;;3.22;2.17;;;;;;;;;;5050566;28;20406;-67
2023/07/29 06:00:24;;;;;;;3.15;2.20;;;;;;;;;;5050673;28;20049;-67
2023/07/29 06:02:51;;;;;;;2.83;1.80;;;;;;;;;;5050516;28;20049;-68
2023/07/29 06:05:18;;;;;;;3.22;1.85;;;;;;;;;;5051106;28;20053;-68
2023/07/29 06:07:44;;;;;;;3.05;1.90;;;;;;;;;;5051401;28;20049;-68
2023/07/29 06:10:12;;;;;;;3.13;1.92;;;;;;;;;;5052163;28;20486;-68
2023/07/29 06:12:39;;;;;;;4.07;2.03;;;;;;;;;;5052190;28;20068;-68
2023/07/29 06:15:08;;;;;;;3.15;1.95;;;;;;;;;;5051844;28;20521;-67
2023/07/29 06:17:35;;;;;;;5.13;1.75;;;;;;;;;;5050427;28;20064;-68
2023/07/29 06:20:02;;;;;;;4.50;1.80;;;;;;;;;;5050137;28;20045;-68
2023/07/29 06:22:28;;;;;;;3.63;1.80;;;;;;;;;;5050700;28;20048;-68
2023/07/29 06:24:55;;;;;;;2.38;1.88;;;;;;;;;;5050811;28;20052;-68
2023/07/29 06:27:21;;;;;;;2.10;1.60;;;;;;;;;;5050829;28;20410;-68
2023/07/29 06:29:48;;;;;;;2.90;1.35;;;;;;;;;;5049811;28;20068;-68
2023/07/29 06:32:16;;;;;;;2.45;1.30;;;;;;;;;;5050978;28;20489;-68
2023/07/29 06:34:42;;;;;;;3.05;1.60;;;;;;;;;;5049893;28;20049;-68
2023/07/29 06:37:09;;;;;;;2.60;1.40;;;;;;;;;;5050542;28;20045;-68
2023/07/29 06:39:36;;;;;;;1.90;1.58;;;;;;;;;;5049599;28;20053;-68
2023/07/29 06:42:02;;;;;;;1.88;1.38;;;;;;;;;;5050156;28;20056;-67
2023/07/29 06:44:29;;;;;;;1.83;1.13;;;;;;;;;;5049951;28;20049;-68
2023/07/29 06:46:55;;;;;;;1.40;1.10;;;;;;;;;;5049918;28;20048;-68
2023/07/29 06:49:23;;;;;;;1.27;1.17;;;;;;;;;;5049915;28;20045;-68
2023/07/29 06:51:50;;;;;;;2.58;1.50;;;;;;;;;;5050148;28;20048;-68
2023/07/29 06:54:17;;;;;;;1.60;1.05;;;;;;;;;;5049815;28;20044;-67
2023/07/29 06:56:44;;;;;;;1.50;1.00;;;;;;;;;;5050182;28;20084;-68
2023/07/29 06:59:10;;;;;;;2.67;0.90;;;;;;;;;;5050142;28;20045;-68
2023/07/29 07:01:37;;;;;;;4.03;1.30;;;;;;;;;;5049037;28;20516;-68
2023/07/29 07:04:04;;;;;;;1.48;1.10;;;;;;;;;;5050111;28;20053;-68
2023/07/29 07:06:32;;;;;;;1.45;0.90;;;;;;;;;;5049246;28;20049;-68
2023/07/29 07:08:58;;;;;;;2.55;0.90;;;;;;;;;;5049952;28;20414;-68
2023/07/29 07:11:25;;;;;;;1.02;0.98;;;;;;;;;;5049308;28;20053;-67
2023/07/29 07:13:51;;;;;;;1.58;0.80;;;;;;;;;;5049889;28;20044;-68
2023/07/29 07:16:18;;;;;;;1.17;1.00;;;;;;;;;;5049067;28;20076;-68
2023/07/29 07:18:45;;;;;;;3.58;1.10;;;;;;;;;;5050088;28;20048;-68
2023/07/29 07:21:11;;;;;;;1.50;0.82;;;;;;;;;;5049422;28;20144;-68
2023/07/29 07:23:39;;;;;;;2.17;0.95;;;;;;;;;;5049645;28;20136;-67
2023/07/29 07:26:06;;;;;;;1.10;0.82;;;;;;;;;;5049387;28;20049;-67
2023/07/29 07:28:32;;;;;;;0.82;0.82;;;;;;;;;;5049735;28;20505;-68
2023/07/29 07:30:59;;;;;;;1.08;0.80;;;;;;;;;;5049625;28;20333;-68
2023/07/29 07:33:25;;;;;;;1.52;1.00;;;;;;;;;;5050356;28;20075;-68
2023/07/29 07:35:52;;;;;;;1.35;0.82;;;;;;;;;;5049847;28;20055;-67
2023/07/29 07:38:19;;;;;;;1.13;0.93;;;;;;;;;;5051780;28;20045;-67
2023/07/29 07:40:55;;;;;;;1.85;0.80;;;;;;;;;;5053320;28;20132;-68
2023/07/29 07:43:22;;;;;;;1.48;1.00;;;;;;;;;;5053058;28;20379;-67
2023/07/29 07:45:48;;;;;;;2.05;1.00;;;;;;;;;;5053796;28;20041;-68
2023/07/29 07:48:16;;;;;;;2.58;1.00;;;;;;;;;;5053209;28;20051;-68
2023/07/29 07:50:43;;;;;;;2.38;1.13;;;;;;;;;;5053557;28;20061;-67
2023/07/29 07:53:09;;;;;;;1.88;1.25;;;;;;;;;;5053126;28;20052;-68
2023/07/29 07:55:36;;;;;;;1.48;1.00;;;;;;;;;;5053316;28;20051;-68
2023/07/29 07:58:04;;;;;;;1.45;1.20;;;;;;;;;;5052694;28;20049;-67
2023/07/29 08:00:31;;;;;;;1.60;1.40;;;;;;;;;;5053006;28;20052;-67
2023/07/29 08:02:57;;;;;;;1.65;1.02;;;;;;;;;;5052931;28;20541;-68
2023/07/29 08:05:24;;;;;;;1.30;1.00;;;;;;;;;;5053653;28;20052;-68
2023/07/29 08:07:51;;;;;;;1.20;1.10;;;;;;;;;;5052802;28;20509;-68
2023/07/29 08:10:17;;;;;;;1.08;0.98;;;;;;;;;;5052705;28;20055;-68
2023/07/29 08:12:44;;;;;;;2.50;1.38;;;;;;;;;;5053029;28;20425;-68
2023/07/29 08:15:12;;;;;;;1.85;1.15;;;;;;;;;;5053007;28;20049;-68
2023/07/29 08:17:39;;;;;;;2.22;1.35;;;;;;;;;;5053036;28;20504;-68
2023/07/29 08:20:06;;;;;;;2.33;1.38;;;;;;;;;;5052254;28;20418;-66
2023/07/29 08:22:33;;;;;;;1.40;1.30;;;;;;;;;;5052970;28;20162;-67
2023/07/29 08:24:59;;;;;;;2.70;1.70;;;;;;;;;;5052582;28;20049;-69
2023/07/29 08:27:26;;;;;;;5.60;1.25;;;;;;;;;;5052982;28;20045;-68
2023/07/29 08:29:54;;;;;;;2.42;1.70;;;;;;;;;;5052364;28;20048;-69
2023/07/29 08:32:22;;;;;;;3.97;1.40;;;;;;;;;;5052793;28;20506;-68
2023/07/29 08:34:49;;;;;;;1.27;1.13;;;;;;;;;;5052469;28;20057;-68
2023/07/29 08:37:15;;;;;;;2.58;1.55;;;;;;;;;;5052694;28;20056;-68
2023/07/29 08:39:42;;;;;;;6.47;1.60;;;;;;;;;;5052031;28;20049;-68
2023/07/29 08:42:11;;;;;;;1.52;1.42;;;;;;;;;;5053391;28;20044;-69
2023/07/29 08:44:43;;;;;;;1.52;1.30;;;;;;;;;;5052319;28;20052;-69
2023/07/29 08:47:10;;;;;;;1.30;1.20;;;;;;;;;;5052846;28;20041;-68
2023/07/29 08:49:39;;;;;;;1.75;1.40;;;;;;;;;;5050844;28;20045;-69
2023/07/29 08:52:07;;;;;;;1.35;1.20;;;;;;;;;;5052149;28;20045;-69
2023/07/29 08:54:34;;;;;;;1.38;1.27;;;;;;;;;;5052515;28;20342;-68
2023/07/29 08:57:01;;;;;;;3.10;1.48;;;;;;;;;;5052116;28;20411;-69
2023/07/29 08:59:29;;;;;;;4.75;1.45;;;;;;;;;;5052287;28;20055;-68
2023/07/29 09:01:57;;;;;;;1.95;1.20;;;;;;;;;;5052093;28;20132;-68
2023/07/29 09:04:24;;;;;;;2.78;1.20;;;;;;;;;;5051942;28;20445;-67
2023/07/29 09:06:54;;;;;;;3.35;1.50;;;;;;;;;;5051966;28;20402;-68
2023/07/29 09:09:21;;;;;;;3.67;1.40;;;;;;;;;;5051944;28;20044;-68
2023/07/29 09:11:49;;;;;;;1.77;1.27;;;;;;;;;;5051249;28;20052;-68
2023/07/29 09:14:16;;;;;;;3.30;1.40;;;;;;;;;;5052018;28;20049;-67
2023/07/29 09:16:42;;;;;;;1.20;1.00;;;;;;;;;;5051327;28;20045;-67
2023/07/29 09:19:09;;;;;;;4.80;1.40;;;;;;;;;;5051445;28;20045;-68
2023/07/29 09:21:39;;;;;;;1.70;1.38;;;;;;;;;;5051105;28;20053;-67
2023/07/29 09:24:08;;;;;;;1.83;1.40;;;;;;;;;;5051771;28;20051;-68
2023/07/29 09:26:35;;;;;;;1.85;1.38;;;;;;;;;;5051477;28;20045;-68
2023/07/29 09:29:01;;;;;;;2.42;1.48;;;;;;;;;;5051666;28;20045;-67
2023/07/29 09:31:29;;;;;;;1.63;1.50;;;;;;;;;;5051210;28;20180;-67
2023/07/29 09:33:58;;;;;;;2.45;1.42;;;;;;;;;;5051348;28;20049;-67
2023/07/29 09:36:24;;;;;;;2.50;1.67;;;;;;;;;;5051522;28;20052;-67
2023/07/29 09:38:54;;;;;;;2.38;1.15;;;;;;;;;;5051240;28;20413;-68
2023/07/29 09:41:23;;;;;;;1.25;1.15;;;;;;;;;;5051137;28;20091;-67
2023/07/29 09:43:57;;;;;;;2.13;1.27;;;;;;;;;;5050896;28;20048;-67
2023/07/29 09:46:25;;;;;;;1.70;1.60;;;;;;;;;;5051603;28;20112;-68
2023/07/29 09:48:54;;;;;;;2.20;1.38;;;;;;;;;;5051016;28;20262;-68
2023/07/29 09:51:21;;;;;;;2.85;1.30;;;;;;;;;;5051326;28;20044;-67
2023/07/29 09:53:48;;;;;;;1.95;1.10;;;;;;;;;;5051045;28;20560;-68
2023/07/29 09:56:16;;;;;;;1.63;1.10;;;;;;;;;;5051166;28;20049;-67
2023/07/29 09:58:45;;;;;;;1.33;1.17;;;;;;;;;;5063978;22;20049;-64
2023/07/29 10:01:13;;;;;;;0.93;0.93;;;;;;;;;;5030525;28;20064;-62
2023/07/29 10:03:40;;;;;;;1.52;1.10;;;;;;;;;;5031598;28;20648;-65
2023/07/29 10:06:08;;;;;;;1.02;0.93;;;;;;;;;;5031477;28;20049;-65
2023/07/29 10:08:38;;;;;;;1.63;1.13;;;;;;;;;;5031165;28;20103;-63
2023/07/29 10:11:06;;;;;;;1.00;0.90;;;;;;;;;;5032100;28;20045;-62
2023/07/29 10:13:34;;;;;;;1.65;1.00;;;;;;;;;;5031594;28;20498;-64
2023/07/29 10:16:03;;;;;;;1.60;1.20;;;;;;;;;;5030973;28;20045;-65
2023/07/29 10:18:31;;;;;;;1.70;1.00;;;;;;;;;;5031581;28;20501;-64
2023/07/29 10:20:58;;;;;;;1.30;1.20;;;;;;;;;;5030981;28;20045;-65
2023/07/29 10:23:26;;;;;;;1.15;1.05;;;;;;;;;;5031313;28;20045;-65
2023/07/29 10:25:58;;;;;;;1.20;1.10;;;;;;;;;;5031017;28;20088;-65
2023/07/29 10:28:26;;;;;;;;;;;;;;;;;;5031957;28;20554;-63
2023/07/29 10:30:53;;;;;;;1.48;1.15;;;;;;;;;;5030900;28;19925;-65
2023/07/29 10:33:22;;;;;;;1.77;1.10;;;;;;;;;;5031417;28;20068;-65
2023/07/29 10:35:50;;;;;;;1.23;1.10;;;;;;;;;;5030596;28;20054;-64
2023/07/29 10:38:17;;;;;;;2.13;1.15;;;;;;;;;;5031125;28;20084;-66
2023/07/29 10:40:48;;;;;;;1.00;0.90;;;;;;;;;;5030666;28;20410;-65
2023/07/29 10:43:24;;;;;;;1.00;1.00;;;;;;;;;;5030909;28;20052;-64
2023/07/29 10:45:51;;;;;;;3.67;1.20;;;;;;;;;;5030568;28;20063;-65
2023/07/29 10:48:43;;;;;;;2.33;1.10;;;;;;;;;;5031030;28;20042;-63
2023/07/29 10:51:23;;;;;;;;;;;;;;;;;;5031126;28;20046;-65
2023/07/29 10:53:52;;;;;;;1.48;1.10;;;;;;;;;;5031349;28;19928;-65
2023/07/29 10:56:26;;;;;;;2.35;1.38;;;;;;;;;;5030832;28;20128;-65
2023/07/29 10:58:53;;;;;;;1.23;1.10;;;;;;;;;;5030816;28;20049;-64
2023/07/29 11:01:28;;;;;;;1.90;1.17;;;;;;;;;;5030251;28;20049;-62
2023/07/29 11:04:26;;;;;;;1.30;1.20;;;;;;;;;;5030626;28;20052;-64
2023/07/29 11:07:26;;;;;;;1.20;1.10;;;;;;;;;;5017920;28;20057;-64
2023/07/29 11:10:04;;;;;;;1.15;1.05;;;;;;;;;;5030632;28;20053;-64
2023/07/29 11:12:39;;;;;;;2.45;1.30;;;;;;;;;;5029220;28;20049;-63
2023/07/29 11:15:14;;;;;;;1.75;1.30;;;;;;;;;;5030416;28;20053;-64
2023/07/29 11:17:42;;;;;;;2.72;1.30;;;;;;;;;;5030198;28;20046;-63
2023/07/29 11:20:11;;;;;;;2.75;1.40;;;;;;;;;;5030886;28;20441;-63
2023/07/29 11:22:38;;;;;;;1.52;1.20;;;;;;;;;;5030369;28;20050;-64
2023/07/29 11:25:06;;;;;;;1.58;1.30;;;;;;;;;;5030997;28;20154;-65
2023/07/29 11:27:33;;;;;;;1.55;1.25;;;;;;;;;;5029739;28;20080;-64
2023/07/29 11:30:01;;;;;;;1.58;1.40;;;;;;;;;;5030347;28;20096;-63
2023/07/29 11:32:28;;;;;;;1.67;1.50;;;;;;;;;;5030436;28;20406;-65
2023/07/29 11:34:55;;;;;;;1.33;1.20;;;;;;;;;;5030097;28;20082;-65
2023/07/29 11:37:23;;;;;;;2.20;1.27;;;;;;;;;;5030482;28;20526;-64
2023/07/29 11:39:51;;;;;;;2.42;1.23;;;;;;;;;;5029863;28;20081;-64
2023/07/29 11:42:17;;;;;;;2.28;1.33;;;;;;;;;;5030329;28;20076;-64
2023/07/29 11:44:44;;;;;;;1.77;1.48;;;;;;;;;;5029936;28;20123;-65
2023/07/29 11:47:12;;;;;;;1.13;1.00;;;;;;;;;;5030516;28;20411;-65
2023/07/29 11:49:41;;;;;;;1.73;1.20;;;;;;;;;;5029948;28;20057;-64
2023/07/29 11:52:08;;;;;;;1.63;1.13;;;;;;;;;;5030222;28;20160;-63
2023/07/29 11:54:37;;;;;;;1.23;1.10;;;;;;;;;;5030138;28;20487;-66
2023/07/29 11:57:06;;;;;;;1.40;1.02;;;;;;;;;;5030142;28;20049;-66
2023/07/29 11:59:34;;;;;;;2.10;1.13;;;;;;;;;;5030084;28;20494;-64
2023/07/29 12:02:02;;;;;;;1.30;1.15;;;;;;;;;;5030724;28;20405;-65
2023/07/29 12:04:29;;;;;;;1.75;1.10;;;;;;;;;;5029828;28;20045;-66
2023/07/29 12:06:57;;;;;;;1.42;1.10;;;;;;;;;;5029954;28;20080;-65
2023/07/29 12:09:23;;;;;;;1.83;1.10;;;;;;;;;;5029583;28;20083;-65
2023/07/29 12:11:52;;;;;;;1.60;1.00;;;;;;;;;;5030128;28;20145;-65
2023/07/29 12:14:18;;;;;;;1.20;1.10;;;;;;;;;;5030282;28;20045;-65
2023/07/29 12:16:45;;;;;;;2.00;1.20;;;;;;;;;;5029490;28;20115;-65
2023/07/29 12:19:13;;;;;;;1.48;1.23;;;;;;;;;;5030197;28;20447;-64
2023/07/29 12:21:41;;;;;;;1.58;1.05;;;;;;;;;;5029764;28;20108;-65
2023/07/29 12:24:08;;;;;;;1.45;1.30;;;;;;;;;;5031991;28;20049;-66
2023/07/29 12:26:36;;;;;;;2.35;0.98;;;;;;;;;;5033340;28;20068;-64
2023/07/29 12:29:13;;;;;;;1.35;1.20;;;;;;;;;;5033594;28;20045;-66
2023/07/29 12:31:40;;;;;;;1.92;1.25;;;;;;;;;;5032928;28;20096;-65
2023/07/29 12:34:07;;;;;;;4.00;1.65;;;;;;;;;;5033683;28;20407;-63
2023/07/29 12:36:44;;;;;;;1.98;1.10;;;;;;;;;;5033019;28;20506;-64
2023/07/29 12:39:18;;;;;;;1.23;1.00;;;;;;;;;;5033448;28;20458;-63
2023/07/29 12:41:45;;;;;;;1.63;1.33;;;;;;;;;;5033089;28;20045;-64
2023/07/29 12:44:13;;;;;;;1.30;1.20;;;;;;;;;;5033389;28;20046;-64
2023/07/29 12:46:39;;;;;;;1.33;1.20;;;;;;;;;;5032920;28;20072;-64
2023/07/29 12:49:06;;;;;;;1.38;1.27;;;;;;;;;;5033010;28;20108;-65
2023/07/29 12:51:34;;;;;;;1.67;1.10;;;;;;;;;;5032876;28;20053;-65
2023/07/29 12:54:00;;;;;;;1.20;1.10;;;;;;;;;;5032904;28;20108;-64
2023/07/29 12:56:27;;;;;;;1.40;1.30;;;;;;;;;;5033128;28;20410;-63
2023/07/29 12:58:54;;;;;;;1.50;1.27;;;;;;;;;;5032459;28;20041;-64
2023/07/29 13:01:22;;;;;;;2.70;1.50;;;;;;;;;;5032858;28;20476;-64
2023/07/29 13:03:49;;;;;;;1.20;0.90;;;;;;;;;;5032555;28;20498;-65
2023/07/29 13:06:16;;;;;;;1.58;1.10;;;;;;;;;;5033082;28;20045;-62
2023/07/29 13:08:43;;;;;;;1.83;1.25;;;;;;;;;;5032934;28;20407;-67
2023/07/29 13:11:10;;;;;;;2.65;1.33;;;;;;;;;;5033096;28;20418;-63
2023/07/29 13:13:36;;;;;;;1.67;1.58;;;;;;;;;;5032416;28;20061;-65
2023/07/29 13:16:03;;;;;;;1.05;1.00;;;;;;;;;;5032794;28;20136;-65
2023/07/29 13:18:31;;;;;;;1.85;1.20;;;;;;;;;;5032092;28;20055;-64
2023/07/29 13:20:58;;;;;;;1.30;1.20;;;;;;;;;;5032564;28;20041;-65
2023/07/29 13:23:25;;;;;;;2.97;1.20;;;;;;;;;;5032599;28;20045;-66
2023/07/29 13:25:51;;;;;;;1.73;1.25;;;;;;;;;;5032730;28;20042;-66
2023/07/29 13:28:18;;;;;;;2.03;1.10;;;;;;;;;;5032089;28;20041;-65
2023/07/29 13:30:45;;;;;;;2.45;1.33;;;;;;;;;;5032542;28;20054;-64
2023/07/29 13:33:12;;;;;;;1.40;1.30;;;;;;;;;;5032252;28;20057;-65
2023/07/29 13:35:40;;;;;;;1.40;1.30;;;;;;;;;;5031490;28;20071;-65
2023/07/29 13:38:07;;;;;;;2.28;1.10;;;;;;;;;;5032398;28;20487;-65
2023/07/29 13:40:33;;;;;;;1.30;1.20;;;;;;;;;;5031900;28;20115;-64
2023/07/29 13:43:00;;;;;;;1.50;1.40;;;;;;;;;;5032214;28;20045;-66
2023/07/29 13:45:27;;;;;;;1.50;1.40;;;;;;;;;;5031749;28;20049;-64
2023/07/29 13:47:53;;;;;;;2.47;1.45;;;;;;;;;;5032079;28;20073;-66
2023/07/29 13:50:20;;;;;;;1.35;1.10;;;;;;;;;;5031749;28;20049;-67
2023/07/29 13:52:48;;;;;;;1.05;0.93;;;;;;;;;;5031978;28;20046;-64
2023/07/29 13:55:14;;;;;;;0.95;0.88;;;;;;;;;;5031654;28;20045;-64
2023/07/29 13:57:41;;;;;;;1.45;1.00;;;;;;;;;;5031621;28;20045;-64
2023/07/29 14:00:09;;;;;;;1.30;1.20;;;;;;;;;;5031392;28;20045;-65
2023/07/29 14:02:35;;;;;;;1.20;1.10;;;;;;;;;;5031659;28;20103;-64
2023/07/29 14:05:02;;;;;;;1.50;1.40;;;;;;;;;;5031191;28;20547;-65
2023/07/29 14:07:28;;;;;;;1.38;1.15;;;;;;;;;;5031416;28;20045;-65
2023/07/29 14:09:56;;;;;;;1.50;1.20;;;;;;;;;;5031581;28;20053;-65
2023/07/29 14:12:23;;;;;;;1.65;1.08;;;;;;;;;;5031298;28;20060;-66
2023/07/29 14:14:49;;;;;;;1.05;0.90;;;;;;;;;;5031831;28;20513;-65
2023/07/29 14:17:16;;;;;;;2.15;1.20;;;;;;;;;;5031383;28;20050;-64
2023/07/29 14:19:42;;;;;;;1.80;1.40;;;;;;;;;;5031494;28;20045;-64
2023/07/29 14:22:09;;;;;;;1.42;1.30;;;;;;;;;;5031066;28;20053;-64
2023/07/29 14:24:35;;;;;;;1.20;0.98;;;;;;;;;;5031374;28;20484;-64
2023/07/29 14:27:04;;;;;;;1.70;1.20;;;;;;;;;;5030888;28;20049;-66
2023/07/29 14:29:30;;;;;;;1.20;1.10;;;;;;;;;;5030934;28;20052;-66
2023/07/29 14:31:57;;;;;;;1.38;0.90;;;;;;;;;;5030610;28;20136;-66
2023/07/29 14:34:23;;;;;;;1.30;1.10;;;;;;;;;;5031046;28;20055;-63
2023/07/29 14:36:50;;;;;;;2.08;1.10;;;;;;;;;;5030665;28;20427;-62
2023/07/29 14:39:17;;;;;;;3.03;1.17;;;;;;;;;;5031326;28;20391;-64
2023/07/29 14:41:43;;;;;;;1.08;1.00;;;;;;;;;;5030666;28;20509;-63
2023/07/29 14:44:11;;;;;;;1.00;0.82;;;;;;;;;;5030745;28;20049;-63
2023/07/29 14:46:38;;;;;;;1.95;1.10;;;;;;;;;;5030802;28;20411;-63